Time;durP1;ratioP1;P1;durP2;ratioP2;P2;SDS_P1;SDS_P2;PMS_P1;PMS_P2;Temp;Humidity;BMP_temperature;BMP_pressure;BME280_temperature;BME280_humidity;BME280_pressure;Samples;Min_cycle;Max_cycle;Signal;HPM_P1;HPM_P2
2023/12/08 00:01:23;;;;;;;22.58;11.07;;;1.50;99.90;;;;;;5073118;28;20431;-59
2023/12/08 00:03:49;;;;;;;22.20;11.32;;;1.50;99.90;;;;;;5072784;28;20082;-60
2023/12/08 00:06:14;;;;;;;26.25;11.85;;;1.50;99.90;;;;;;5071778;28;20048;-61
2023/12/08 00:08:41;;;;;;;24.60;12.20;;;1.50;99.90;;;;;;5072709;28;20044;-60
2023/12/08 00:11:07;;;;;;;23.08;11.60;;;1.50;99.90;;;;;;5072323;28;20048;-61
2023/12/08 00:13:34;;;;;;;24.25;12.68;;;1.50;99.90;;;;;;5072553;28;20404;-60
2023/12/08 00:15:59;;;;;;;24.42;11.25;;;1.50;99.90;;;;;;5072715;28;20177;-60
2023/12/08 00:18:25;;;;;;;25.10;12.55;;;1.50;99.90;;;;;;5072700;28;20119;-60
2023/12/08 00:20:51;;;;;;;22.90;11.20;;;1.50;99.90;;;;;;5072798;28;20032;-61
2023/12/08 00:23:17;;;;;;;26.08;11.27;;;1.50;99.90;;;;;;5072169;28;20080;-60
2023/12/08 00:25:43;;;;;;;27.80;12.13;;;1.50;99.90;;;;;;5072424;28;20116;-60
2023/12/08 00:28:09;;;;;;;21.52;11.55;;;1.50;99.90;;;;;;5072071;28;20115;-61
2023/12/08 00:30:35;;;;;;;26.65;12.57;;;1.40;99.90;;;;;;5071858;28;20057;-61
2023/12/08 00:33:02;;;;;;;23.13;11.50;;;1.50;99.90;;;;;;5072290;28;20040;-60
2023/12/08 00:35:28;;;;;;;23.13;11.93;;;1.40;99.90;;;;;;5071020;28;20048;-60
2023/12/08 00:37:54;;;;;;;26.35;12.90;;;1.50;99.90;;;;;;5072367;28;20039;-60
2023/12/08 00:40:20;;;;;;;25.25;12.40;;;1.40;99.90;;;;;;5070790;28;20044;-61
2023/12/08 00:42:47;;;;;;;22.92;11.98;;;1.40;99.90;;;;;;5072464;28;20048;-60
2023/12/08 00:45:13;;;;;;;22.88;11.15;;;1.40;99.90;;;;;;5072409;28;20040;-60
2023/12/08 00:47:39;;;;;;;26.38;11.52;;;1.40;99.90;;;;;;5072398;28;20051;-60
2023/12/08 00:50:07;;;;;;;23.00;11.32;;;1.40;99.90;;;;;;5072387;28;20040;-60
2023/12/08 00:52:33;;;;;;;25.83;12.77;;;1.40;99.90;;;;;;5072400;28;20064;-60
2023/12/08 00:54:58;;;;;;;22.42;11.82;;;1.40;99.90;;;;;;5071927;28;20445;-60
2023/12/08 00:57:24;;;;;;;23.80;11.93;;;1.40;99.90;;;;;;5072319;28;20075;-60
2023/12/08 00:59:50;;;;;;;22.65;11.88;;;1.40;99.90;;;;;;5071816;28;20036;-61
2023/12/08 01:02:16;;;;;;;23.20;10.95;;;1.40;99.90;;;;;;5070815;28;20040;-61
2023/12/08 01:04:41;;;;;;;25.17;11.88;;;1.40;99.90;;;;;;5072121;28;20045;-60
2023/12/08 01:07:08;;;;;;;25.13;12.40;;;1.40;99.90;;;;;;5072081;28;20059;-61
2023/12/08 01:09:33;;;;;;;24.00;11.25;;;1.40;99.90;;;;;;5072105;28;20496;-60
2023/12/08 01:11:59;;;;;;;23.60;12.25;;;1.40;99.90;;;;;;5071820;28;20044;-61
2023/12/08 01:14:25;;;;;;;22.23;11.63;;;1.30;99.90;;;;;;5071700;28;20450;-61
2023/12/08 01:16:51;;;;;;;22.75;11.30;;;1.40;99.90;;;;;;5072016;28;20033;-61
2023/12/08 01:19:16;;;;;;;24.38;12.25;;;1.30;99.90;;;;;;5072116;28;20039;-59
2023/12/08 01:21:42;;;;;;;24.08;11.90;;;1.30;99.90;;;;;;5071883;28;20040;-60
2023/12/08 01:24:08;;;;;;;21.20;11.35;;;1.30;99.90;;;;;;5071576;28;20040;-60
2023/12/08 01:26:34;;;;;;;24.40;12.65;;;1.40;99.90;;;;;;5071606;28;20050;-60
2023/12/08 01:29:00;;;;;;;23.33;11.45;;;1.40;99.90;;;;;;5071639;28;20071;-60
2023/12/08 01:31:25;;;;;;;23.17;12.20;;;1.40;99.90;;;;;;5071525;28;20465;-59
2023/12/08 01:33:51;;;;;;;26.75;13.27;;;1.30;99.90;;;;;;5071724;28;20048;-60
2023/12/08 01:36:17;;;;;;;26.10;11.80;;;1.40;99.90;;;;;;5071604;28;20119;-60
2023/12/08 01:38:46;;;;;;;22.70;11.43;;;1.40;99.90;;;;;;5071537;28;20550;-61
2023/12/08 01:41:15;;;;;;;26.95;12.32;;;1.30;99.90;;;;;;5069996;28;20044;-60
2023/12/08 01:43:42;;;;;;;24.40;11.82;;;1.30;99.90;;;;;;5070215;28;20044;-58
2023/12/08 01:46:10;;;;;;;26.33;12.30;;;1.30;99.90;;;;;;5071614;28;20048;-61
2023/12/08 01:48:35;;;;;;;23.75;12.07;;;1.30;99.90;;;;;;5071303;28;20756;-60
2023/12/08 01:51:03;;;;;;;24.17;12.48;;;1.30;99.90;;;;;;5071368;28;20057;-60
2023/12/08 01:53:30;;;;;;;22.90;11.60;;;1.30;99.90;;;;;;5071468;28;20028;-60
2023/12/08 01:55:56;;;;;;;26.08;13.55;;;1.30;99.90;;;;;;5071200;28;20544;-61
2023/12/08 01:58:23;;;;;;;28.05;13.15;;;1.30;99.90;;;;;;5071123;28;20123;-60
2023/12/08 02:00:48;;;;;;;27.13;12.82;;;1.30;99.90;;;;;;5071183;28;20493;-60
2023/12/08 02:03:15;;;;;;;23.63;13.00;;;1.30;99.90;;;;;;5071250;28;20040;-60
2023/12/08 02:05:50;;;;;;;25.52;11.98;;;1.30;99.90;;;;;;5071725;28;20373;-60
2023/12/08 02:08:17;;;;;;;24.63;12.07;;;1.30;99.90;;;;;;5071573;28;20040;-60
2023/12/08 02:10:43;;;;;;;23.08;12.32;;;1.20;99.90;;;;;;5070935;28;20479;-61
2023/12/08 02:13:11;;;;;;;25.63;12.05;;;1.20;99.90;;;;;;5071943;28;20044;-60
2023/12/08 02:15:38;;;;;;;24.70;12.40;;;1.20;99.90;;;;;;5073602;28;20076;-60
2023/12/08 02:18:05;;;;;;;23.52;11.68;;;1.20;99.90;;;;;;5074658;28;20041;-60
2023/12/08 02:20:32;;;;;;;26.13;13.32;;;1.20;99.90;;;;;;5074505;28;20489;-59
2023/12/08 02:22:58;;;;;;;22.35;11.65;;;1.20;99.90;;;;;;5074479;28;20044;-60
2023/12/08 02:25:24;;;;;;;25.17;13.13;;;1.30;99.90;;;;;;5074315;28;20047;-60
2023/12/08 02:27:49;;;;;;;22.75;12.07;;;1.20;99.90;;;;;;5074820;28;20184;-60
2023/12/08 02:30:16;;;;;;;24.50;12.48;;;1.20;99.90;;;;;;5074382;28;20061;-59
2023/12/08 02:32:51;;;;;;;26.35;13.07;;;1.20;99.90;;;;;;5074441;28;20489;-60
2023/12/08 02:35:20;;;;;;;24.65;12.23;;;1.20;99.90;;;;;;5074429;28;20041;-59
2023/12/08 02:37:48;;;;;;;24.50;12.57;;;1.30;99.90;;;;;;5074792;28;20083;-60
2023/12/08 02:40:14;;;;;;;25.00;12.07;;;1.20;99.90;;;;;;5073260;28;20052;-60
2023/12/08 02:42:40;;;;;;;23.98;12.02;;;1.20;99.90;;;;;;5074430;28;20044;-60
2023/12/08 02:45:06;;;;;;;24.60;12.57;;;1.20;99.90;;;;;;5074408;28;20040;-60
2023/12/08 02:47:32;;;;;;;22.55;11.98;;;1.20;99.90;;;;;;5074360;28;20060;-60
2023/12/08 02:49:58;;;;;;;26.52;11.80;;;1.20;99.90;;;;;;5074556;28;20153;-60
2023/12/08 02:52:23;;;;;;;26.63;12.20;;;1.20;99.90;;;;;;5073865;28;20037;-59
2023/12/08 02:54:49;;;;;;;26.77;13.27;;;1.20;99.90;;;;;;5074038;28;20041;-60
2023/12/08 02:57:15;;;;;;;24.35;12.55;;;1.20;99.90;;;;;;5074051;28;20090;-60
2023/12/08 02:59:40;;;;;;;24.73;12.35;;;1.20;99.90;;;;;;5074008;28;20056;-61
2023/12/08 03:02:06;;;;;;;26.15;13.18;;;1.20;99.90;;;;;;5074036;28;20036;-60
2023/12/08 03:04:32;;;;;;;23.27;11.45;;;1.20;99.90;;;;;;5073849;28;20044;-61
2023/12/08 03:06:57;;;;;;;25.63;12.85;;;1.20;99.90;;;;;;5074005;28;20041;-60
2023/12/08 03:09:23;;;;;;;24.75;11.95;;;1.20;99.90;;;;;;5073925;28;20056;-60
2023/12/08 03:11:49;;;;;;;26.40;12.90;;;1.20;99.90;;;;;;5074056;28;20391;-60
2023/12/08 03:14:14;;;;;;;27.27;13.40;;;1.20;99.90;;;;;;5072845;28;20484;-60
2023/12/08 03:16:40;;;;;;;24.90;13.27;;;1.20;99.90;;;;;;5074209;28;20045;-60
2023/12/08 03:19:06;;;;;;;23.15;12.10;;;1.20;99.90;;;;;;5073924;28;20045;-60
2023/12/08 03:21:32;;;;;;;25.15;12.30;;;1.20;99.90;;;;;;5072852;28;20503;-60
2023/12/08 03:23:57;;;;;;;25.88;11.88;;;1.20;99.90;;;;;;5071797;28;20040;-60
2023/12/08 03:26:23;;;;;;;26.10;12.85;;;1.20;99.90;;;;;;5073140;28;20415;-60
2023/12/08 03:28:49;;;;;;;25.10;13.10;;;1.20;99.90;;;;;;5073373;28;20036;-61
2023/12/08 03:31:31;;;;;;;25.00;12.43;;;1.20;99.90;;;;;;5073617;28;20045;-60
2023/12/08 03:33:56;;;;;;;28.42;13.27;;;1.20;99.90;;;;;;5073302;28;20043;-60
2023/12/08 03:36:22;;;;;;;23.88;12.93;;;1.20;99.90;;;;;;5073174;28;20032;-60
2023/12/08 03:38:48;;;;;;;25.42;12.80;;;1.20;99.90;;;;;;5073438;28;20392;-59
2023/12/08 03:41:14;;;;;;;25.10;12.68;;;1.20;99.90;;;;;;5073059;28;20044;-59
2023/12/08 03:43:40;;;;;;;24.45;13.05;;;1.20;99.90;;;;;;5073161;28;20044;-60
2023/12/08 03:46:07;;;;;;;26.95;13.48;;;1.20;99.90;;;;;;5072962;28;20168;-60
2023/12/08 03:48:35;;;;;;;25.00;12.70;;;1.20;99.90;;;;;;5072930;28;20101;-59
2023/12/08 03:51:01;;;;;;;24.00;12.57;;;1.30;99.90;;;;;;5071500;28;20484;-59
2023/12/08 03:53:26;;;;;;;25.00;12.95;;;1.20;99.90;;;;;;5071651;28;20055;-60
2023/12/08 03:55:52;;;;;;;28.70;13.25;;;1.30;99.90;;;;;;5073041;28;20075;-59
2023/12/08 03:58:18;;;;;;;23.92;12.20;;;1.20;99.90;;;;;;5072767;28;20046;-59
2023/12/08 04:00:43;;;;;;;26.25;12.98;;;1.20;99.90;;;;;;5071500;28;20068;-59
2023/12/08 04:03:09;;;;;;;24.92;12.85;;;1.20;99.90;;;;;;5072936;28;20075;-58
2023/12/08 04:05:34;;;;;;;24.42;12.05;;;1.20;99.90;;;;;;5072885;28;20115;-59
2023/12/08 04:08:04;;;;;;;25.83;12.88;;;1.20;99.90;;;;;;5073028;28;20396;-59
2023/12/08 04:10:30;;;;;;;24.67;12.88;;;1.20;99.90;;;;;;5071538;28;20106;-59
2023/12/08 04:12:56;;;;;;;24.33;13.25;;;1.20;99.90;;;;;;5072911;28;20040;-59
2023/12/08 04:15:21;;;;;;;25.83;12.98;;;1.20;99.90;;;;;;5072479;28;20534;-59
2023/12/08 04:17:47;;;;;;;26.00;12.60;;;1.20;99.90;;;;;;5072177;28;20094;-60
2023/12/08 04:20:13;;;;;;;27.38;12.55;;;1.20;99.90;;;;;;5072426;28;20041;-59
2023/12/08 04:22:38;;;;;;;23.80;11.68;;;1.10;99.90;;;;;;5072274;28;20488;-60
2023/12/08 04:25:05;;;;;;;26.52;12.35;;;1.20;99.90;;;;;;5072600;28;20045;-59
2023/12/08 04:27:30;;;;;;;24.85;12.20;;;1.10;99.90;;;;;;5072835;28;20044;-60
2023/12/08 04:29:56;;;;;;;24.15;12.77;;;1.00;99.90;;;;;;5072421;28;20094;-60
2023/12/08 04:32:22;;;;;;;22.85;11.93;;;1.00;99.90;;;;;;5072187;28;20127;-60
2023/12/08 04:34:47;;;;;;;23.75;11.85;;;1.00;99.90;;;;;;5072675;28;20044;-59
2023/12/08 04:37:13;;;;;;;22.70;11.40;;;1.00;99.90;;;;;;5072388;28;20118;-60
2023/12/08 04:39:38;;;;;;;28.17;12.82;;;0.90;99.90;;;;;;5072611;28;20037;-59
2023/12/08 04:42:05;;;;;;;23.88;13.32;;;1.00;99.90;;;;;;5072476;28;20047;-60
2023/12/08 04:44:30;;;;;;;25.63;12.70;;;1.00;99.90;;;;;;5071204;28;20087;-58
2023/12/08 04:46:56;;;;;;;24.27;12.57;;;0.80;99.90;;;;;;5072547;28;20072;-60
2023/12/08 04:49:21;;;;;;;22.92;12.27;;;0.80;99.90;;;;;;5072186;28;20045;-60
2023/12/08 04:51:47;;;;;;;25.80;12.75;;;0.80;99.90;;;;;;5072149;28;20047;-60
2023/12/08 04:54:13;;;;;;;24.63;12.18;;;0.70;99.90;;;;;;5072505;28;20119;-60
2023/12/08 04:56:38;;;;;;;26.05;12.32;;;0.80;99.90;;;;;;5072167;28;20119;-60
2023/12/08 04:59:04;;;;;;;22.42;11.93;;;0.70;99.90;;;;;;5072135;28;20068;-60
2023/12/08 05:01:30;;;;;;;25.42;12.35;;;0.80;99.90;;;;;;5072398;28;20048;-60
2023/12/08 05:03:55;;;;;;;23.10;12.05;;;0.80;99.90;;;;;;5071992;28;20041;-60
2023/12/08 05:06:24;;;;;;;26.17;13.35;;;0.80;99.90;;;;;;5072259;28;20058;-60
2023/12/08 05:08:50;;;;;;;23.17;11.55;;;0.80;99.90;;;;;;5072306;28;20090;-61
2023/12/08 05:11:16;;;;;;;25.73;12.50;;;0.70;99.90;;;;;;5071893;28;20049;-60
2023/12/08 05:13:41;;;;;;;25.77;13.05;;;0.80;99.90;;;;;;5070856;28;20044;-61
2023/12/08 05:16:11;;;;;;;23.48;11.60;;;0.70;99.90;;;;;;5072130;28;20048;-60
2023/12/08 05:18:37;;;;;;;27.30;13.40;;;0.70;99.90;;;;;;5072182;28;20063;-61
2023/12/08 05:21:03;;;;;;;26.95;13.13;;;0.70;99.90;;;;;;5072171;28;20484;-60
2023/12/08 05:23:29;;;;;;;28.00;13.90;;;0.70;99.90;;;;;;5072111;28;20048;-60
2023/12/08 05:25:54;;;;;;;26.92;14.02;;;0.70;99.90;;;;;;5071942;28;20032;-60
2023/12/08 05:28:20;;;;;;;25.13;12.80;;;0.70;99.90;;;;;;5071658;28;20067;-60
2023/12/08 05:30:46;;;;;;;23.67;12.43;;;0.80;99.90;;;;;;5071521;28;20132;-60
2023/12/08 05:33:12;;;;;;;26.95;13.45;;;0.60;99.90;;;;;;5070548;28;20044;-60
2023/12/08 05:35:37;;;;;;;25.65;12.65;;;0.80;99.90;;;;;;5071791;28;20102;-61
2023/12/08 05:38:03;;;;;;;24.63;12.50;;;0.80;99.90;;;;;;5071709;28;20037;-61
2023/12/08 05:40:29;;;;;;;27.52;13.40;;;0.70;99.90;;;;;;5072010;28;20094;-61
2023/12/08 05:42:54;;;;;;;26.67;12.90;;;0.80;99.90;;;;;;5071575;28;20377;-60
2023/12/08 05:45:20;;;;;;;25.48;12.60;;;0.70;99.90;;;;;;5071534;28;20044;-60
2023/12/08 05:47:46;;;;;;;26.88;12.70;;;0.70;99.90;;;;;;5071273;28;20044;-60
2023/12/08 05:50:11;;;;;;;26.83;12.57;;;0.80;99.90;;;;;;5075510;28;20043;-60
2023/12/08 05:52:37;;;;;;;28.67;13.02;;;0.70;99.90;;;;;;5074336;28;20048;-60
2023/12/08 05:55:03;;;;;;;24.95;11.93;;;0.60;99.90;;;;;;5075756;28;20045;-60
2023/12/08 05:57:29;;;;;;;26.20;12.77;;;0.70;99.90;;;;;;5075358;28;20036;-60
2023/12/08 05:59:54;;;;;;;26.38;12.95;;;0.50;99.90;;;;;;5075392;28;20036;-60
2023/12/08 06:02:21;;;;;;;25.95;12.82;;;0.70;99.90;;;;;;5057378;28;20052;-60
2023/12/08 06:04:47;;;;;;;26.45;12.80;;;0.70;99.90;;;;;;5075432;28;20045;-60
2023/12/08 06:07:13;;;;;;;23.98;12.02;;;0.60;99.90;;;;;;5075415;28;20059;-60
2023/12/08 06:09:38;;;;;;;27.15;13.20;;;0.60;99.90;;;;;;5075020;28;20146;-59
2023/12/08 06:12:04;;;;;;;25.67;13.00;;;0.50;99.90;;;;;;5075328;28;20040;-60
2023/12/08 06:14:30;;;;;;;28.17;13.27;;;0.50;99.90;;;;;;5075289;28;20044;-60
2023/12/08 06:16:56;;;;;;;28.42;12.93;;;0.70;99.90;;;;;;5074999;28;20511;-60
2023/12/08 06:19:21;;;;;;;28.35;14.27;;;0.70;99.90;;;;;;5075144;28;20045;-60
2023/12/08 06:21:47;;;;;;;28.08;13.75;;;0.60;99.90;;;;;;5075118;28;20044;-60
2023/12/08 06:24:13;;;;;;;24.83;12.77;;;0.50;99.90;;;;;;5073720;28;20044;-60
2023/12/08 06:26:38;;;;;;;25.45;12.70;;;0.50;99.90;;;;;;5075130;28;20048;-59
2023/12/08 06:29:04;;;;;;;27.60;12.50;;;0.70;99.90;;;;;;5074714;28;20401;-60
2023/12/08 06:31:31;;;;;;;27.60;14.23;;;0.60;99.90;;;;;;5074691;28;20067;-60
2023/12/08 06:33:57;;;;;;;27.58;12.23;;;0.50;99.90;;;;;;5075050;28;20045;-59
2023/12/08 06:36:22;;;;;;;26.38;12.13;;;0.60;99.90;;;;;;5074977;28;20041;-60
2023/12/08 06:38:48;;;;;;;26.42;12.52;;;0.50;99.90;;;;;;5074670;28;20163;-60
2023/12/08 06:41:13;;;;;;;25.17;12.05;;;0.60;99.90;;;;;;5074853;28;20063;-60
2023/12/08 06:43:39;;;;;;;24.63;11.52;;;0.50;99.90;;;;;;5074729;28;20086;-60
2023/12/08 06:46:05;;;;;;;24.08;11.98;;;0.60;99.90;;;;;;5074367;28;20131;-60
2023/12/08 06:48:30;;;;;;;25.75;13.05;;;0.60;99.90;;;;;;5074294;28;20200;-60
2023/12/08 06:50:56;;;;;;;25.67;12.07;;;0.40;99.90;;;;;;5074615;28;20048;-59
2023/12/08 06:53:23;;;;;;;24.00;11.82;;;0.40;99.90;;;;;;5074419;28;20530;-59
2023/12/08 06:55:48;;;;;;;24.85;11.95;;;0.60;99.90;;;;;;5073063;28;20396;-60
2023/12/08 06:58:14;;;;;;;23.83;11.95;;;0.60;99.90;;;;;;5074104;28;20036;-60
2023/12/08 07:00:39;;;;;;;28.42;12.68;;;0.50;99.90;;;;;;5074049;28;20358;-60
2023/12/08 07:03:05;;;;;;;23.60;11.88;;;0.40;99.90;;;;;;5074327;28;20144;-60
2023/12/08 07:05:31;;;;;;;26.58;13.27;;;0.60;99.90;;;;;;5074098;28;20469;-59
2023/12/08 07:07:57;;;;;;;26.80;13.68;;;0.50;99.90;;;;;;5074091;28;20085;-59
2023/12/08 07:10:23;;;;;;;25.80;12.45;;;0.40;99.90;;;;;;5074048;28;20472;-60
2023/12/08 07:12:49;;;;;;;28.75;13.65;;;0.40;99.90;;;;;;5074197;28;20051;-59
2023/12/08 07:15:15;;;;;;;26.48;12.30;;;0.60;99.90;;;;;;5073722;28;20696;-59
2023/12/08 07:17:40;;;;;;;26.85;12.50;;;0.50;99.90;;;;;;5074077;28;20404;-59
2023/12/08 07:20:09;;;;;;;28.55;13.30;;;0.40;99.90;;;;;;5073717;28;20090;-59
2023/12/08 07:22:36;;;;;;;27.45;12.93;;;0.40;99.90;;;;;;5073743;28;20047;-59
2023/12/08 07:25:07;;;;;;;28.75;12.80;;;0.40;99.90;;;;;;5073342;28;20040;-59
2023/12/08 07:27:32;;;;;;;27.98;13.50;;;0.50;99.90;;;;;;5071985;28;20048;-59
2023/12/08 07:29:58;;;;;;;28.17;12.88;;;0.50;99.90;;;;;;5073588;28;20178;-60
2023/12/08 07:32:24;;;;;;;29.27;13.18;;;0.60;99.90;;;;;;5073437;28;20057;-60
2023/12/08 07:34:50;;;;;;;25.38;12.75;;;0.50;99.90;;;;;;5073681;28;20045;-60
2023/12/08 07:37:16;;;;;;;30.55;13.73;;;0.70;99.90;;;;;;5073536;28;20449;-60
2023/12/08 07:39:42;;;;;;;29.33;13.48;;;0.60;99.90;;;;;;5073385;28;20075;-60
2023/12/08 07:42:08;;;;;;;25.30;12.63;;;0.70;99.90;;;;;;5073465;28;20076;-59
2023/12/08 07:44:35;;;;;;;30.55;13.93;;;0.60;99.90;;;;;;5072067;28;20447;-60
2023/12/08 07:47:01;;;;;;;27.80;13.00;;;0.70;99.90;;;;;;5073157;28;20503;-59
2023/12/08 07:49:27;;;;;;;32.58;14.13;;;0.70;99.90;;;;;;5073434;28;20087;-59
2023/12/08 07:51:53;;;;;;;26.40;12.93;;;0.70;99.90;;;;;;5073118;28;20453;-58
2023/12/08 07:54:18;;;;;;;26.55;12.20;;;0.70;99.90;;;;;;5073494;28;20058;-59
2023/12/08 07:56:44;;;;;;;26.80;12.55;;;0.60;99.90;;;;;;5073215;28;20041;-60
2023/12/08 07:59:10;;;;;;;27.52;13.32;;;0.70;99.90;;;;;;5073314;28;20125;-60
2023/12/08 08:01:36;;;;;;;29.33;13.13;;;0.60;99.90;;;;;;5073327;28;20098;-60
2023/12/08 08:04:01;;;;;;;29.00;13.95;;;0.70;99.90;;;;;;5073257;28;20127;-60
2023/12/08 08:06:27;;;;;;;29.35;13.00;;;0.70;99.90;;;;;;5073180;28;20042;-59
2023/12/08 08:08:54;;;;;;;25.00;13.20;;;0.70;99.90;;;;;;5073057;28;20480;-60
2023/12/08 08:11:20;;;;;;;26.65;12.95;;;0.60;99.90;;;;;;5072446;28;20122;-59
2023/12/08 08:13:46;;;;;;;28.58;13.20;;;0.80;99.90;;;;;;5073053;28;20041;-60
2023/12/08 08:16:11;;;;;;;26.55;12.40;;;0.80;99.90;;;;;;5072911;28;20090;-59
2023/12/08 08:18:37;;;;;;;30.23;13.90;;;0.70;99.90;;;;;;5072601;28;20097;-59
2023/12/08 08:21:03;;;;;;;27.13;13.88;;;0.80;99.90;;;;;;5072630;28;20094;-60
2023/12/08 08:23:29;;;;;;;24.67;12.57;;;0.80;99.90;;;;;;5071333;28;20040;-59
2023/12/08 08:25:55;;;;;;;26.92;11.55;;;0.80;99.90;;;;;;5072650;28;20119;-60
2023/12/08 08:28:21;;;;;;;29.02;13.13;;;0.70;99.90;;;;;;5072390;28;20093;-59
2023/12/08 08:30:46;;;;;;;31.52;14.30;;;0.80;99.90;;;;;;5072451;28;20055;-60
2023/12/08 08:33:12;;;;;;;28.48;13.77;;;0.70;99.90;;;;;;5072515;28;20036;-61
2023/12/08 08:35:39;;;;;;;26.00;13.32;;;0.80;99.90;;;;;;5072785;28;20503;-61
2023/12/08 08:38:05;;;;;;;30.67;13.57;;;0.60;99.90;;;;;;5072439;28;20046;-61
2023/12/08 08:40:31;;;;;;;29.33;13.77;;;0.70;99.90;;;;;;5072237;28;20044;-60
2023/12/08 08:42:57;;;;;;;28.75;13.10;;;0.70;99.90;;;;;;5071333;28;20163;-61
2023/12/08 08:45:22;;;;;;;27.63;12.52;;;0.70;99.90;;;;;;5072457;28;20460;-61
2023/12/08 08:47:48;;;;;;;29.55;13.25;;;0.80;99.90;;;;;;5072131;28;20045;-60
2023/12/08 08:50:14;;;;;;;30.77;14.45;;;0.80;99.90;;;;;;5072092;28;20036;-61
2023/12/08 08:52:40;;;;;;;29.63;14.07;;;0.80;99.90;;;;;;5072203;28;20048;-60
2023/12/08 08:55:06;;;;;;;30.25;15.05;;;0.90;99.90;;;;;;5072443;28;20044;-62
2023/12/08 08:57:32;;;;;;;28.35;14.07;;;0.70;99.90;;;;;;5072299;28;20032;-61
2023/12/08 08:59:58;;;;;;;29.08;13.75;;;0.80;99.90;;;;;;5072035;28;20481;-60
2023/12/08 09:02:23;;;;;;;27.40;13.98;;;0.80;99.90;;;;;;5072282;28;20052;-61
2023/12/08 09:04:49;;;;;;;29.95;14.73;;;0.90;99.90;;;;;;5071965;28;20522;-60
2023/12/08 09:07:15;;;;;;;28.88;13.85;;;0.80;99.90;;;;;;5071542;28;20123;-61
2023/12/08 09:09:41;;;;;;;29.00;13.55;;;0.90;99.90;;;;;;5071819;28;20048;-61
2023/12/08 09:12:07;;;;;;;27.90;14.25;;;0.90;99.90;;;;;;5071891;28;20067;-61
2023/12/08 09:14:33;;;;;;;30.40;13.85;;;0.80;99.90;;;;;;5072071;28;20422;-61
2023/12/08 09:17:05;;;;;;;30.48;14.48;;;1.00;99.90;;;;;;5071887;28;20409;-60
2023/12/08 09:19:31;;;;;;;29.60;14.30;;;0.90;99.90;;;;;;5071961;28;20055;-60
2023/12/08 09:21:57;;;;;;;29.45;13.65;;;1.00;99.90;;;;;;5072027;28;20036;-61
2023/12/08 09:24:25;;;;;;;30.20;14.18;;;0.90;99.90;;;;;;5075888;28;20407;-61
2023/12/08 09:26:52;;;;;;;34.70;14.00;;;1.00;99.90;;;;;;5074997;28;20080;-61
2023/12/08 09:29:18;;;;;;;28.33;14.00;;;1.00;99.90;;;;;;5075919;28;20052;-61
2023/12/08 09:31:44;;;;;;;30.98;15.57;;;0.90;99.90;;;;;;5074660;28;20055;-61
2023/12/08 09:34:10;;;;;;;28.02;14.55;;;0.90;99.90;;;;;;5058019;28;20041;-61
2023/12/08 09:36:36;;;;;;;29.95;13.10;;;1.00;99.90;;;;;;5075985;28;20515;-61
2023/12/08 09:39:04;;;;;;;29.92;13.70;;;1.10;99.90;;;;;;5075667;28;20553;-61
2023/12/08 09:41:30;;;;;;;26.80;13.07;;;0.90;99.90;;;;;;5075702;28;20465;-61
2023/12/08 09:44:13;;;;;;;29.05;14.10;;;1.10;99.90;;;;;;5075818;28;20060;-61
2023/12/08 09:46:54;;;;;;;27.35;13.80;;;0.90;99.90;;;;;;5075798;28;20036;-61
2023/12/08 09:49:28;;;;;;;30.70;13.53;;;1.00;99.90;;;;;;5075558;28;20120;-61
2023/12/08 09:51:55;;;;;;;30.13;14.52;;;1.00;99.90;;;;;;5075612;28;20037;-62
2023/12/08 09:54:21;;;;;;;28.77;14.15;;;1.10;99.90;;;;;;5075635;28;20036;-60
2023/12/08 09:56:52;;;;;;;31.02;14.82;;;1.00;99.90;;;;;;5075431;28;20036;-61
2023/12/08 09:59:24;;;;;;;29.33;13.98;;;1.00;99.90;;;;;;5075208;28;20029;-61
2023/12/08 10:01:50;;;;;;;30.70;14.67;;;1.10;99.90;;;;;;5075690;28;20128;-61
2023/12/08 10:04:17;;;;;;;33.13;13.73;;;1.00;99.90;;;;;;5075518;28;20328;-62
2023/12/08 10:06:44;;;;;;;27.98;14.00;;;1.10;99.90;;;;;;5075455;28;20036;-61
2023/12/08 10:09:11;;;;;;;29.00;15.15;;;1.00;99.90;;;;;;5075063;28;20480;-61
2023/12/08 10:11:38;;;;;;;28.15;13.48;;;1.10;99.90;;;;;;5073985;28;20032;-61
2023/12/08 10:14:07;;;;;;;28.95;14.85;;;1.30;99.90;;;;;;5075328;28;20044;-61
2023/12/08 10:16:33;;;;;;;27.67;14.38;;;1.30;99.90;;;;;;5075443;28;20058;-60
2023/12/08 10:19:06;;;;;;;27.98;13.88;;;1.20;99.90;;;;;;5075033;28;20115;-61
2023/12/08 10:21:34;;;;;;;30.27;13.55;;;1.20;99.90;;;;;;5074968;28;20040;-61
2023/12/08 10:24:00;;;;;;;32.30;14.45;;;1.20;99.90;;;;;;5075237;28;20143;-61
2023/12/08 10:26:27;;;;;;;28.90;14.23;;;1.40;99.90;;;;;;5074775;28;20075;-61
2023/12/08 10:28:59;;;;;;;29.95;13.70;;;1.20;99.90;;;;;;5074357;28;20116;-59
2023/12/08 10:31:26;;;;;;;27.35;14.15;;;1.20;99.90;;;;;;5074873;28;20703;-60
2023/12/08 10:33:52;;;;;;;28.73;13.73;;;1.40;99.90;;;;;;5074314;28;20451;-61
2023/12/08 10:36:19;;;;;;;29.35;14.55;;;1.20;99.90;;;;;;5074838;28;20028;-61
2023/12/08 10:38:46;;;;;;;31.45;14.45;;;1.30;99.90;;;;;;5074870;28;20036;-61
2023/12/08 10:41:13;;;;;;;27.55;13.90;;;1.50;99.90;;;;;;5073589;28;20058;-61
2023/12/08 10:43:39;;;;;;;31.20;14.82;;;1.40;99.90;;;;;;5074434;28;20032;-61
2023/12/08 10:46:06;;;;;;;31.35;14.73;;;1.40;99.90;;;;;;5074821;28;20059;-61
2023/12/08 10:48:34;;;;;;;27.60;13.13;;;1.50;99.90;;;;;;5074744;28;20076;-60
2023/12/08 10:51:00;;;;;;;28.23;12.75;;;1.40;99.90;;;;;;5074456;28;20036;-61
2023/12/08 10:53:27;;;;;;;30.17;14.52;;;1.30;99.90;;;;;;5074256;28;20043;-61
2023/12/08 10:56:03;;;;;;;30.65;14.98;;;1.40;99.90;;;;;;5074319;28;20115;-60
2023/12/08 10:58:34;;;;;;;28.65;14.43;;;1.50;99.90;;;;;;5074768;28;20471;-61
2023/12/08 11:01:04;;;;;;;29.25;14.32;;;1.40;99.90;;;;;;5074545;28;20093;-61
2023/12/08 11:03:32;;;;;;;27.60;13.38;;;1.60;99.90;;;;;;5074281;28;20044;-61
2023/12/08 11:06:25;;;;;;;27.83;13.93;;;1.40;99.90;;;;;;5074510;28;20032;-61
2023/12/08 11:08:54;;;;;;;;;;;1.60;99.90;;;;;;5074630;28;20048;-61
2023/12/08 11:11:22;;;;;;;27.48;12.65;;;1.50;99.90;;;;;;5074294;28;19920;-61
2023/12/08 11:13:53;;;;;;;32.03;14.50;;;1.50;99.90;;;;;;5074036;28;20040;-61
2023/12/08 11:16:33;;;;;;;27.80;13.73;;;1.60;99.90;;;;;;5074177;28;20106;-61
2023/12/08 11:19:00;;;;;;;33.15;14.68;;;1.60;99.90;;;;;;5073768;28;20098;-61
2023/12/08 11:21:27;;;;;;;32.25;13.75;;;1.50;99.90;;;;;;5074105;28;20036;-61
2023/12/08 11:23:54;;;;;;;31.40;14.35;;;1.70;99.90;;;;;;5073835;28;20455;-60
2023/12/08 11:26:46;;;;;;;29.35;14.40;;;1.60;99.90;;;;;;5073669;28;20515;-61
2023/12/08 11:29:19;;;;;;;32.10;15.00;;;1.40;99.90;;;;;;5073122;28;20119;-60
2023/12/08 11:32:03;;;;;;;32.22;14.95;;;1.50;99.90;;;;;;5072251;28;20151;-61
2023/12/08 11:34:36;;;;;;;27.40;13.48;;;1.70;99.90;;;;;;5073674;28;20384;-61
2023/12/08 11:37:02;;;;;;;35.35;15.80;;;1.60;99.90;;;;;;5073509;28;20036;-61
2023/12/08 11:39:33;;;;;;;34.25;15.95;;;1.50;99.90;;;;;;5073233;28;20032;-61
2023/12/08 11:41:59;;;;;;;33.13;15.00;;;1.60;99.90;;;;;;5073136;28;20119;-60
2023/12/08 11:44:25;;;;;;;28.67;13.90;;;1.50;99.90;;;;;;5073106;28;20136;-60
2023/12/08 11:46:52;;;;;;;32.78;14.13;;;1.50;99.90;;;;;;5072282;28;20067;-61
2023/12/08 11:49:18;;;;;;;30.58;13.93;;;1.60;99.90;;;;;;5072006;28;20055;-61
2023/12/08 11:52:09;;;;;;;33.58;15.32;;;1.80;99.90;;;;;;5072962;28;20086;-60
2023/12/08 11:55:09;;;;;;;36.63;15.70;;;1.80;99.90;;;;;;5072912;28;20435;-60
2023/12/08 11:57:58;;;;;;;33.55;15.15;;;1.50;99.90;;;;;;5065248;28;20036;-61
2023/12/08 12:00:26;;;;;;;33.17;15.02;;;1.70;99.90;;;;;;5065150;28;20086;-61
2023/12/08 12:02:52;;;;;;;37.78;16.15;;;1.70;99.90;;;;;;5073080;28;20158;-61
2023/12/08 12:05:19;;;;;;;36.45;15.50;;;1.80;99.90;;;;;;5072815;28;20123;-60
2023/12/08 12:07:50;;;;;;;34.33;16.30;;;1.70;99.90;;;;;;5073035;28;20387;-60
2023/12/08 12:10:18;;;;;;;37.73;14.93;;;1.60;99.90;;;;;;5072806;28;20041;-61
2023/12/08 12:13:04;;;;;;;34.63;15.88;;;1.70;99.90;;;;;;5072744;28;20470;-61
2023/12/08 12:15:33;;;;;;;38.38;16.60;;;1.70;99.90;;;;;;5072876;28;20115;-61
2023/12/08 12:18:03;;;;;;;36.20;16.08;;;1.60;99.90;;;;;;5072823;28;20029;-61
2023/12/08 12:20:36;;;;;;;39.15;18.27;;;1.70;99.90;;;;;;5072579;28;20044;-60
2023/12/08 12:23:02;;;;;;;43.45;18.15;;;1.80;99.90;;;;;;5072662;28;20047;-60
2023/12/08 12:25:28;;;;;;;40.22;16.83;;;1.90;99.90;;;;;;5072414;28;20496;-61
2023/12/08 12:27:55;;;;;;;36.60;16.83;;;1.90;99.90;;;;;;5072352;28;20068;-60
2023/12/08 12:30:21;;;;;;;40.28;17.65;;;1.90;99.90;;;;;;5072411;28;20167;-61
2023/12/08 12:32:50;;;;;;;38.17;16.80;;;2.00;99.90;;;;;;5070946;28;20488;-60
2023/12/08 12:35:17;;;;;;;40.50;16.88;;;1.80;99.90;;;;;;5072525;28;20044;-60
2023/12/08 12:37:43;;;;;;;39.22;17.85;;;2.00;99.90;;;;;;5072333;28;20443;-60